Time;durP1;ratioP1;P1;durP2;ratioP2;P2;SDS_P1;SDS_P2;PMS_P1;PMS_P2;Temp;Humidity;BMP_temperature;BMP_pressure;BME280_temperature;BME280_humidity;BME280_pressure;Samples;Min_cycle;Max_cycle;Signal;HPM_P1;HPM_P2
2022/06/24 00:00:56;;;;;;;6.32;2.75;;;;;;;;;;370753;144;857161;-56
2022/06/24 00:01:58;;;;;;;4.47;2.24;;;;;;;;;;371692;144;857138;-59
2022/06/24 00:03:00;;;;;;;9.13;3.01;;;;;;;;;;369561;144;859501;-56
2022/06/24 00:04:02;;;;;;;5.40;2.76;;;;;;;;;;372267;144;867182;-56
2022/06/24 00:05:07;;;;;;;3.99;3.08;;;;;;;;;;372564;141;857170;-57
2022/06/24 00:06:15;;;;;;;6.93;3.19;;;;;;;;;;370848;144;857749;-57
2022/06/24 00:07:16;;;;;;;3.41;2.61;;;;;;;;;;368554;144;857655;-56
2022/06/24 00:08:18;;;;;;;7.21;3.10;;;;;;;;;;373401;144;857255;-56
2022/06/24 00:09:19;;;;;;;6.79;2.87;;;;;;;;;;369138;141;865670;-58
2022/06/24 00:10:24;;;;;;;4.74;3.02;;;;;;;;;;372004;142;864791;-56
2022/06/24 00:11:27;;;;;;;5.18;3.10;;;;;;;;;;372819;141;857359;-56
2022/06/24 00:12:29;;;;;;;4.43;3.11;;;;;;;;;;372345;141;857718;-56
2022/06/24 00:13:39;;;;;;;4.19;2.95;;;;;;;;;;366100;144;857775;-56
2022/06/24 00:14:41;;;;;;;5.19;2.88;;;;;;;;;;366672;144;858003;-56
2022/06/24 00:15:43;;;;;;;5.87;3.69;;;;;;;;;;374290;141;857030;-57
2022/06/24 00:16:50;;;;;;;6.52;3.54;;;;;;;;;;371686;141;857886;-56
2022/06/24 00:17:51;;;;;;;9.48;4.09;;;;;;;;;;371566;141;866708;-56
2022/06/24 00:19:09;;;;;;;10.31;3.84;;;;;;;;;;370433;141;857312;-56
2022/06/24 00:20:16;;;;;;;6.29;3.46;;;;;;;;;;372887;141;865268;-57
2022/06/24 00:21:19;;;;;;;9.04;3.85;;;;;;;;;;368178;141;857182;-57
2022/06/24 00:22:21;;;;;;;10.09;4.72;;;;;;;;;;368153;142;859760;-57
2022/06/24 00:23:22;;;;;;;6.83;3.62;;;;;;;;;;367098;142;864752;-57
2022/06/24 00:24:24;;;;;;;5.51;3.95;;;;;;;;;;368832;145;864716;-57
2022/06/24 00:25:26;;;;;;;5.24;3.68;;;;;;;;;;367359;145;858184;-57
2022/06/24 00:26:40;;;;;;;8.76;3.93;;;;;;;;;;360525;147;858780;-57
2022/06/24 00:27:42;;;;;;;8.64;4.26;;;;;;;;;;354958;150;858983;-56
2022/06/24 00:28:44;;;;;;;5.61;4.17;;;;;;;;;;354836;148;856388;-57
2022/06/24 00:29:46;;;;;;;9.07;4.32;;;;;;;;;;355315;148;858187;-58
2022/06/24 00:30:57;;;;;;;6.94;3.83;;;;;;;;;;355076;147;857453;-57
2022/06/24 00:32:01;;;;;;;9.23;3.83;;;;;;;;;;353563;150;858954;-58
2022/06/24 00:33:11;;;;;;;7.77;3.73;;;;;;;;;;357367;148;859912;-57
2022/06/24 00:34:23;;;;;;;5.51;3.53;;;;;;;;;;354721;147;857343;-57
2022/06/24 00:35:25;;;;;;;5.89;4.02;;;;;;;;;;353685;150;858151;-57
2022/06/24 00:36:28;;;;;;;5.13;3.81;;;;;;;;;;354586;148;857284;-58
2022/06/24 00:37:30;;;;;;;8.76;4.30;;;;;;;;;;356527;148;859031;-57
2022/06/24 00:38:34;;;;;;;4.75;3.47;;;;;;;;;;357099;149;857709;-57
2022/06/24 00:39:36;;;;;;;7.83;3.84;;;;;;;;;;353512;150;857133;-57
2022/06/24 00:40:39;;;;;;;8.23;4.14;;;;;;;;;;355862;148;858975;-57
2022/06/24 00:41:41;;;;;;;8.66;4.00;;;;;;;;;;356128;147;864898;-57
2022/06/24 00:42:45;;;;;;;8.36;3.51;;;;;;;;;;355480;148;857968;-56
2022/06/24 00:43:46;;;;;;;8.89;3.99;;;;;;;;;;356892;147;866760;-57
2022/06/24 00:44:53;;;;;;;5.93;4.22;;;;;;;;;;356112;148;857912;-57
2022/06/24 00:45:56;;;;;;;5.87;4.08;;;;;;;;;;347768;153;857379;-58
2022/06/24 00:46:58;;;;;;;8.54;3.99;;;;;;;;;;351040;150;857729;-59
2022/06/24 00:48:00;;;;;;;10.46;4.33;;;;;;;;;;356473;149;864692;-58
2022/06/24 00:49:01;;;;;;;9.61;4.39;;;;;;;;;;362375;148;859301;-58
2022/06/24 00:50:04;;;;;;;8.01;4.39;;;;;;;;;;352298;151;857696;-58
2022/06/24 00:51:09;;;;;;;10.27;4.92;;;;;;;;;;353399;147;865160;-57
2022/06/24 00:52:11;;;;;;;9.88;4.61;;;;;;;;;;361131;148;866078;-57
2022/06/24 00:53:13;;;;;;;6.09;4.45;;;;;;;;;;355039;148;866685;-58
2022/06/24 00:54:15;;;;;;;8.99;4.65;;;;;;;;;;359892;145;857261;-57
2022/06/24 00:55:18;;;;;;;6.01;4.24;;;;;;;;;;358452;145;857244;-58
2022/06/24 00:56:22;;;;;;;6.58;4.24;;;;;;;;;;360713;145;859878;-59
2022/06/24 00:57:24;;;;;;;9.83;4.47;;;;;;;;;;359474;148;866477;-57
2022/06/24 00:58:25;;;;;;;5.35;4.30;;;;;;;;;;359317;148;857347;-57
2022/06/24 00:59:27;;;;;;;7.58;4.17;;;;;;;;;;362257;147;859313;-56
2022/06/24 01:00:30;;;;;;;6.51;4.13;;;;;;;;;;359297;145;857282;-58
2022/06/24 01:01:37;;;;;;;7.51;4.47;;;;;;;;;;360536;145;857248;-57
2022/06/24 01:02:38;;;;;;;9.71;4.33;;;;;;;;;;362580;145;858423;-58
2022/06/24 01:03:42;;;;;;;7.59;4.51;;;;;;;;;;360994;147;857462;-57
2022/06/24 01:04:45;;;;;;;9.06;4.01;;;;;;;;;;360317;148;862262;-57
2022/06/24 01:05:46;;;;;;;7.95;4.56;;;;;;;;;;352582;149;858288;-57
2022/06/24 01:06:49;;;;;;;6.32;4.23;;;;;;;;;;363992;145;857967;-56
2022/06/24 01:07:50;;;;;;;7.63;4.34;;;;;;;;;;368369;142;857345;-57
2022/06/24 01:08:52;;;;;;;10.35;4.44;;;;;;;;;;369478;145;865872;-57
2022/06/24 01:09:54;;;;;;;8.58;4.03;;;;;;;;;;368491;144;857222;-56
2022/06/24 01:10:55;;;;;;;8.61;4.25;;;;;;;;;;368999;144;864906;-57
2022/06/24 01:11:57;;;;;;;9.15;4.47;;;;;;;;;;369042;142;865142;-57
2022/06/24 01:12:59;;;;;;;7.56;4.32;;;;;;;;;;369787;142;858918;-57
2022/06/24 01:14:00;;;;;;;6.67;4.15;;;;;;;;;;368188;145;858640;-56
2022/06/24 01:15:06;;;;;;;6.66;4.31;;;;;;;;;;368332;142;860189;-56
2022/06/24 01:16:08;;;;;;;7.25;4.20;;;;;;;;;;367832;145;864762;-58
2022/06/24 01:17:10;;;;;;;4.80;3.69;;;;;;;;;;369638;144;858758;-57
2022/06/24 01:18:11;;;;;;;5.87;4.16;;;;;;;;;;368239;145;862633;-57
2022/06/24 01:19:13;;;;;;;6.75;4.21;;;;;;;;;;367892;144;857977;-57
2022/06/24 01:20:16;;;;;;;5.99;3.98;;;;;;;;;;367694;145;857209;-56
2022/06/24 01:21:34;;;;;;;7.56;3.99;;;;;;;;;;368973;144;864814;-56
2022/06/24 01:22:36;;;;;;;8.63;4.05;;;;;;;;;;366839;145;864888;-58
2022/06/24 01:23:37;;;;;;;8.74;4.06;;;;;;;;;;370676;145;859223;-59
2022/06/24 01:24:39;;;;;;;13.16;4.66;;;;;;;;;;369764;145;866400;-59
2022/06/24 01:25:40;;;;;;;8.24;5.00;;;;;;;;;;371865;144;857300;-57
2022/06/24 01:26:46;;;;;;;6.54;4.13;;;;;;;;;;370673;144;866614;-57
2022/06/24 01:27:48;;;;;;;6.48;4.26;;;;;;;;;;370154;145;865420;-57
2022/06/24 01:28:51;;;;;;;7.54;4.14;;;;;;;;;;370446;145;859446;-57
2022/06/24 01:29:52;;;;;;;9.13;3.66;;;;;;;;;;368087;142;866567;-57
2022/06/24 01:30:54;;;;;;;7.49;3.85;;;;;;;;;;368574;142;857277;-57
2022/06/24 01:31:56;;;;;;;8.44;3.85;;;;;;;;;;369500;141;865405;-60
2022/06/24 01:32:57;;;;;;;7.76;3.56;;;;;;;;;;366564;144;857151;-56
2022/06/24 01:33:59;;;;;;;6.51;3.76;;;;;;;;;;360615;145;865137;-57
2022/06/24 01:35:01;;;;;;;5.00;3.61;;;;;;;;;;362284;145;859117;-57
2022/06/24 01:36:02;;;;;;;7.13;3.57;;;;;;;;;;366813;145;857187;-57
2022/06/24 01:37:04;;;;;;;8.85;3.31;;;;;;;;;;354801;148;857164;-57
2022/06/24 01:38:06;;;;;;;6.98;3.29;;;;;;;;;;360233;147;865665;-55
2022/06/24 01:39:08;;;;;;;6.07;3.51;;;;;;;;;;361552;146;864733;-57
2022/06/24 01:40:10;;;;;;;7.14;3.69;;;;;;;;;;358245;147;857225;-57
2022/06/24 01:41:13;;;;;;;6.59;3.32;;;;;;;;;;361274;147;857246;-57
2022/06/24 01:42:15;;;;;;;7.96;3.61;;;;;;;;;;356300;148;858922;-57
2022/06/24 01:43:16;;;;;;;7.01;3.60;;;;;;;;;;359415;148;857227;-57
2022/06/24 01:44:18;;;;;;;4.71;3.19;;;;;;;;;;361401;147;864998;-57
2022/06/24 01:45:20;;;;;;;8.64;3.29;;;;;;;;;;361698;147;859097;-58
2022/06/24 01:46:22;;;;;;;9.23;3.37;;;;;;;;;;352700;149;857314;-58
2022/06/24 01:47:23;;;;;;;4.54;3.66;;;;;;;;;;351026;151;858172;-58
2022/06/24 01:48:25;;;;;;;5.58;3.24;;;;;;;;;;363043;147;857364;-57
2022/06/24 01:49:26;;;;;;;7.39;3.56;;;;;;;;;;354928;148;857266;-57
2022/06/24 01:50:28;;;;;;;8.19;3.32;;;;;;;;;;360461;148;865621;-57
2022/06/24 01:51:30;;;;;;;7.58;3.42;;;;;;;;;;360016;148;864823;-57
2022/06/24 01:52:31;;;;;;;5.62;3.29;;;;;;;;;;354347;149;858982;-57
2022/06/24 01:53:33;;;;;;;5.14;3.34;;;;;;;;;;361948;147;857269;-57
2022/06/24 01:54:34;;;;;;;5.80;3.20;;;;;;;;;;365212;144;864762;-57
2022/06/24 01:55:36;;;;;;;4.31;2.83;;;;;;;;;;366524;144;864862;-57
2022/06/24 01:56:38;;;;;;;4.09;2.90;;;;;;;;;;369175;144;865225;-58
2022/06/24 01:57:39;;;;;;;8.29;3.05;;;;;;;;;;370510;144;865235;-57
2022/06/24 01:58:41;;;;;;;9.45;2.93;;;;;;;;;;367829;145;858711;-57
2022/06/24 01:59:43;;;;;;;4.71;2.76;;;;;;;;;;367916;144;856556;-57
2022/06/24 02:00:44;;;;;;;4.33;2.39;;;;;;;;;;366826;145;858484;-57
2022/06/24 02:01:46;;;;;;;3.67;2.53;;;;;;;;;;368194;145;859032;-58
2022/06/24 02:02:47;;;;;;;5.96;2.83;;;;;;;;;;368897;145;857348;-57
2022/06/24 02:03:49;;;;;;;3.74;2.46;;;;;;;;;;368230;144;868618;-57
2022/06/24 02:04:52;;;;;;;6.49;3.00;;;;;;;;;;367846;145;864991;-57
2022/06/24 02:05:54;;;;;;;6.08;2.61;;;;;;;;;;364364;144;859509;-57
2022/06/24 02:06:56;;;;;;;7.42;3.07;;;;;;;;;;369927;144;858781;-56
2022/06/24 02:07:57;;;;;;;4.97;2.48;;;;;;;;;;368851;145;857590;-57
2022/06/24 02:08:59;;;;;;;5.09;2.99;;;;;;;;;;369829;144;857268;-58
2022/06/24 02:13:50;;;;;;;4.70;2.72;;;;;;;;;;352459;149;857806;-57
2022/06/24 02:14:52;;;;;;;6.81;2.64;;;;;;;;;;364400;142;856317;-58
2022/06/24 02:15:58;;;;;;;6.21;2.54;;;;;;;;;;368119;144;857278;-58
2022/06/24 02:17:00;;;;;;;5.54;2.28;;;;;;;;;;367935;142;857598;-58
2022/06/24 02:18:02;;;;;;;5.06;2.41;;;;;;;;;;367785;145;860074;-58
2022/06/24 02:19:03;;;;;;;4.86;2.26;;;;;;;;;;362252;146;860379;-57
2022/06/24 02:20:05;;;;;;;3.71;2.49;;;;;;;;;;361150;145;860015;-57
2022/06/24 02:21:07;;;;;;;6.06;2.22;;;;;;;;;;367183;142;864795;-57
2022/06/24 02:22:10;;;;;;;3.91;2.26;;;;;;;;;;367671;144;858452;-58
2022/06/24 02:23:11;;;;;;;3.17;2.35;;;;;;;;;;363770;145;857281;-58
2022/06/24 02:24:13;;;;;;;3.89;2.16;;;;;;;;;;364750;144;858118;-57
2022/06/24 02:25:15;;;;;;;7.02;2.44;;;;;;;;;;364984;144;865215;-58
2022/06/24 02:26:17;;;;;;;4.95;2.01;;;;;;;;;;365000;144;857055;-57
2022/06/24 02:27:19;;;;;;;3.96;2.18;;;;;;;;;;364410;145;858679;-58
2022/06/24 02:28:20;;;;;;;7.86;2.14;;;;;;;;;;367000;144;864720;-57
2022/06/24 02:29:22;;;;;;;5.17;2.59;;;;;;;;;;364582;145;864928;-58
2022/06/24 02:30:25;;;;;;;6.40;2.39;;;;;;;;;;364669;144;857173;-58
2022/06/24 02:31:27;;;;;;;4.77;2.06;;;;;;;;;;365393;144;864806;-58
2022/06/24 02:32:29;;;;;;;8.34;2.44;;;;;;;;;;365826;144;857256;-58
2022/06/24 02:33:31;;;;;;;4.32;2.17;;;;;;;;;;366621;144;860164;-57
2022/06/24 02:34:32;;;;;;;6.84;2.22;;;;;;;;;;364129;144;857295;-57
2022/06/24 02:35:34;;;;;;;2.37;1.66;;;;;;;;;;368008;144;866151;-57
2022/06/24 02:36:36;;;;;;;6.71;2.11;;;;;;;;;;364752;144;858794;-57
2022/06/24 02:37:37;;;;;;;4.99;2.25;;;;;;;;;;362622;144;864820;-56
2022/06/24 02:38:39;;;;;;;3.24;1.86;;;;;;;;;;362507;144;866582;-56
2022/06/24 02:39:41;;;;;;;3.61;2.00;;;;;;;;;;362495;144;859013;-57
2022/06/24 02:40:45;;;;;;;6.17;2.67;;;;;;;;;;366349;144;863705;-57
2022/06/24 02:41:47;;;;;;;4.39;1.89;;;;;;;;;;366535;144;859151;-56
2022/06/24 02:42:56;;;;;;;3.66;2.17;;;;;;;;;;365318;144;857470;-56
2022/06/24 02:43:58;;;;;;;5.81;2.36;;;;;;;;;;363816;144;857839;-58
2022/06/24 02:45:00;;;;;;;2.25;1.90;;;;;;;;;;367724;144;857229;-57
2022/06/24 02:46:03;;;;;;;6.40;2.15;;;;;;;;;;366420;144;862075;-57
2022/06/24 02:47:04;;;;;;;4.46;2.31;;;;;;;;;;365544;144;856312;-57
2022/06/24 02:48:06;;;;;;;3.03;2.04;;;;;;;;;;368079;144;856241;-57
2022/06/24 02:49:08;;;;;;;2.52;1.77;;;;;;;;;;365401;144;856283;-57
2022/06/24 02:50:10;;;;;;;3.14;1.91;;;;;;;;;;365542;144;856248;-57
2022/06/24 02:51:13;;;;;;;5.50;2.19;;;;;;;;;;364042;145;856261;-58
2022/06/24 02:52:14;;;;;;;4.21;2.20;;;;;;;;;;366205;144;856146;-57
2022/06/24 02:53:16;;;;;;;5.64;1.71;;;;;;;;;;367095;144;863449;-57
2022/06/24 02:54:18;;;;;;;8.50;2.06;;;;;;;;;;366747;145;856157;-58
2022/06/24 02:55:19;;;;;;;3.01;2.14;;;;;;;;;;364919;145;863633;-56
2022/06/24 02:56:22;;;;;;;2.60;1.51;;;;;;;;;;366379;144;856741;-57
2022/06/24 02:57:24;;;;;;;3.97;1.75;;;;;;;;;;364859;144;863587;-57
2022/06/24 02:58:25;;;;;;;8.36;2.02;;;;;;;;;;365983;144;856319;-57
2022/06/24 02:59:27;;;;;;;4.02;1.74;;;;;;;;;;364090;144;856296;-57
2022/06/24 03:00:29;;;;;;;7.07;2.19;;;;;;;;;;367102;144;857086;-57
2022/06/24 03:01:30;;;;;;;8.63;1.98;;;;;;;;;;358618;147;856333;-58
2022/06/24 03:02:32;;;;;;;3.33;1.79;;;;;;;;;;356005;148;856365;-58
2022/06/24 03:03:34;;;;;;;5.56;2.26;;;;;;;;;;356970;148;856336;-56
2022/06/24 03:04:35;;;;;;;4.69;1.93;;;;;;;;;;356373;148;858134;-56
2022/06/24 03:05:37;;;;;;;5.97;2.06;;;;;;;;;;353787;148;859380;-57
2022/06/24 03:06:39;;;;;;;5.39;1.89;;;;;;;;;;357613;147;857302;-56
2022/06/24 03:07:40;;;;;;;5.80;1.89;;;;;;;;;;349341;150;866539;-56
2022/06/24 03:08:43;;;;;;;6.34;1.87;;;;;;;;;;360461;147;859141;-57
2022/06/24 03:09:45;;;;;;;4.06;1.73;;;;;;;;;;354662;148;866798;-56
2022/06/24 03:10:46;;;;;;;3.11;1.62;;;;;;;;;;351170;149;859709;-55
2022/06/24 03:11:48;;;;;;;6.96;1.97;;;;;;;;;;355268;148;864742;-56
2022/06/24 03:12:49;;;;;;;4.51;2.14;;;;;;;;;;358741;147;860627;-55
2022/06/24 03:13:51;;;;;;;4.27;1.95;;;;;;;;;;359445;147;857751;-56
2022/06/24 03:14:53;;;;;;;4.50;2.26;;;;;;;;;;359916;147;865395;-56
2022/06/24 03:15:55;;;;;;;6.09;2.02;;;;;;;;;;358453;147;859625;-55
2022/06/24 03:16:56;;;;;;;3.61;1.84;;;;;;;;;;353149;149;857245;-56
2022/06/24 03:17:58;;;;;;;4.81;2.33;;;;;;;;;;354136;149;864834;-55
2022/06/24 03:18:59;;;;;;;3.77;1.97;;;;;;;;;;358645;147;858802;-57
2022/06/24 03:20:02;;;;;;;6.08;1.99;;;;;;;;;;354551;148;864425;-57
2022/06/24 03:21:06;;;;;;;4.54;2.05;;;;;;;;;;356906;147;864874;-57
2022/06/24 03:22:07;;;;;;;4.85;2.14;;;;;;;;;;356697;147;858205;-57
2022/06/24 03:23:09;;;;;;;3.77;2.24;;;;;;;;;;358492;145;866979;-56
2022/06/24 03:24:10;;;;;;;10.41;2.83;;;;;;;;;;362858;145;867035;-56
2022/06/24 03:25:12;;;;;;;4.80;2.07;;;;;;;;;;362164;145;858043;-56
2022/06/24 03:26:14;;;;;;;7.00;1.87;;;;;;;;;;360031;148;858178;-56
2022/06/24 03:27:16;;;;;;;3.05;1.61;;;;;;;;;;358802;147;857613;-56
2022/06/24 03:28:17;;;;;;;4.39;1.82;;;;;;;;;;356633;147;857596;-55
2022/06/24 03:29:19;;;;;;;3.05;1.88;;;;;;;;;;362628;145;858121;-56
2022/06/24 03:30:23;;;;;;;5.12;1.91;;;;;;;;;;361911;145;864534;-56
2022/06/24 03:31:24;;;;;;;4.26;2.15;;;;;;;;;;363062;145;865144;-56
2022/06/24 03:32:26;;;;;;;3.77;1.82;;;;;;;;;;364136;145;866524;-57
2022/06/24 03:33:28;;;;;;;2.27;1.80;;;;;;;;;;356605;148;864839;-58
2022/06/24 03:34:29;;;;;;;8.35;2.16;;;;;;;;;;351039;150;857858;-58
2022/06/24 03:35:31;;;;;;;4.52;2.01;;;;;;;;;;362739;145;857811;-57
2022/06/24 03:36:33;;;;;;;2.87;1.82;;;;;;;;;;360981;145;857726;-57
2022/06/24 03:37:34;;;;;;;4.16;1.89;;;;;;;;;;361600;145;865459;-57
2022/06/24 03:38:36;;;;;;;1.99;1.64;;;;;;;;;;363701;144;857371;-57
2022/06/24 03:39:37;;;;;;;1.98;1.66;;;;;;;;;;359621;147;867193;-57
2022/06/24 03:40:39;;;;;;;2.19;1.86;;;;;;;;;;358156;147;860337;-56
2022/06/24 03:41:41;;;;;;;4.39;1.69;;;;;;;;;;359407;147;865074;-57
2022/06/24 03:42:42;;;;;;;2.82;1.57;;;;;;;;;;357224;147;858965;-57
2022/06/24 03:43:44;;;;;;;4.36;2.13;;;;;;;;;;363723;144;866303;-56
2022/06/24 03:44:46;;;;;;;4.71;1.71;;;;;;;;;;372108;141;857367;-56
2022/06/24 03:45:47;;;;;;;2.59;1.80;;;;;;;;;;373414;141;857352;-56
2022/06/24 03:46:49;;;;;;;4.75;1.83;;;;;;;;;;369090;141;864933;-58
2022/06/24 03:47:51;;;;;;;3.86;1.77;;;;;;;;;;371301;141;857384;-59
2022/06/24 03:48:53;;;;;;;4.96;1.67;;;;;;;;;;370712;141;859106;-60
2022/06/24 03:49:54;;;;;;;2.89;1.86;;;;;;;;;;373314;141;859210;-59
2022/06/24 03:50:56;;;;;;;2.45;1.47;;;;;;;;;;372013;144;857269;-60
2022/06/24 03:51:58;;;;;;;5.93;2.17;;;;;;;;;;371878;141;866398;-59
2022/06/24 03:53:00;;;;;;;5.09;1.71;;;;;;;;;;371473;141;860108;-58
2022/06/24 03:54:02;;;;;;;6.39;2.26;;;;;;;;;;373256;141;857222;-60
2022/06/24 03:55:04;;;;;;;3.23;1.74;;;;;;;;;;373793;141;857291;-61
2022/06/24 03:56:05;;;;;;;2.77;2.09;;;;;;;;;;373269;141;864607;-60
2022/06/24 03:57:07;;;;;;;3.76;1.71;;;;;;;;;;364171;147;857321;-62
2022/06/24 03:58:09;;;;;;;4.96;1.72;;;;;;;;;;365631;141;857343;-59
2022/06/24 03:59:10;;;;;;;3.31;2.31;;;;;;;;;;370277;141;858163;-60
2022/06/24 04:00:13;;;;;;;1.85;1.67;;;;;;;;;;372651;141;857277;-59
2022/06/24 04:01:15;;;;;;;3.03;1.64;;;;;;;;;;372502;141;857118;-62
2022/06/24 04:02:18;;;;;;;3.09;1.64;;;;;;;;;;371510;141;864393;-63
2022/06/24 04:03:20;;;;;;;12.22;1.92;;;;;;;;;;372780;141;857155;-59
2022/06/24 04:04:22;;;;;;;3.21;1.73;;;;;;;;;;372204;141;857311;-59
2022/06/24 04:05:23;;;;;;;4.43;1.77;;;;;;;;;;370676;143;858044;-60
2022/06/24 04:06:25;;;;;;;3.97;1.67;;;;;;;;;;371666;141;866424;-60
2022/06/24 04:07:27;;;;;;;1.62;1.35;;;;;;;;;;373808;141;858618;-63
2022/06/24 04:08:29;;;;;;;6.09;1.56;;;;;;;;;;374793;141;857346;-65
2022/06/24 04:09:30;;;;;;;3.26;1.75;;;;;;;;;;370929;141;857212;-59
2022/06/24 04:10:32;;;;;;;5.16;1.54;;;;;;;;;;371571;141;866511;-59
2022/06/24 04:11:33;;;;;;;2.53;1.66;;;;;;;;;;373894;141;864663;-60
2022/06/24 04:12:35;;;;;;;5.11;2.57;;;;;;;;;;372371;141;859071;-59
2022/06/24 04:13:36;;;;;;;1.71;1.56;;;;;;;;;;370284;141;858265;-61
2022/06/24 04:15:58;;;;;;;;;;;;;;;;;;373479;141;856452;-59
2022/06/24 04:17:01;;;;;;;7.35;1.63;;;;;;;;;;369227;141;857373;-59
2022/06/24 04:18:03;;;;;;;4.37;1.95;;;;;;;;;;372512;144;859027;-60
2022/06/24 04:19:04;;;;;;;3.15;1.88;;;;;;;;;;373434;141;865688;-59
2022/06/24 04:20:07;;;;;;;2.08;1.51;;;;;;;;;;364387;144;866237;-59
2022/06/24 04:21:12;;;;;;;5.65;1.89;;;;;;;;;;358931;149;856323;-60
2022/06/24 04:22:13;;;;;;;1.94;1.53;;;;;;;;;;365656;145;856311;-60
2022/06/24 04:23:15;;;;;;;2.09;1.54;;;;;;;;;;357425;146;863837;-61
2022/06/24 04:24:16;;;;;;;5.17;1.69;;;;;;;;;;362345;147;857432;-61
2022/06/24 04:25:18;;;;;;;3.67;1.61;;;;;;;;;;363973;144;863663;-60
2022/06/24 04:26:21;;;;;;;5.04;1.78;;;;;;;;;;364028;146;857148;-60
2022/06/24 04:27:22;;;;;;;2.36;1.50;;;;;;;;;;362817;146;863629;-58
2022/06/24 04:28:24;;;;;;;3.84;1.53;;;;;;;;;;360368;146;863730;-60
2022/06/24 04:29:25;;;;;;;3.32;1.85;;;;;;;;;;360806;147;856590;-59
2022/06/24 04:30:28;;;;;;;4.56;1.78;;;;;;;;;;360425;147;856915;-58
2022/06/24 04:31:29;;;;;;;2.04;1.65;;;;;;;;;;359709;146;864198;-59
2022/06/24 04:32:31;;;;;;;1.74;1.34;;;;;;;;;;360293;146;856359;-59
2022/06/24 04:33:34;;;;;;;3.46;1.69;;;;;;;;;;363366;147;856200;-57
2022/06/24 04:34:36;;;;;;;4.77;1.66;;;;;;;;;;362637;147;863279;-60
2022/06/24 04:35:39;;;;;;;3.82;1.68;;;;;;;;;;361600;146;863618;-61
2022/06/24 04:36:41;;;;;;;6.16;1.82;;;;;;;;;;363323;146;863693;-60
2022/06/24 04:37:43;;;;;;;2.14;1.53;;;;;;;;;;363024;146;857230;-59
2022/06/24 04:38:44;;;;;;;4.39;1.67;;;;;;;;;;355143;148;863495;-60
2022/06/24 04:39:46;;;;;;;2.75;1.61;;;;;;;;;;354437;148;857124;-60
2022/06/24 04:40:48;;;;;;;3.29;1.83;;;;;;;;;;357173;150;863663;-61
2022/06/24 04:41:50;;;;;;;4.63;1.79;;;;;;;;;;359721;146;856495;-61
2022/06/24 04:42:51;;;;;;;2.70;1.54;;;;;;;;;;362541;146;856462;-62
2022/06/24 04:43:53;;;;;;;3.95;1.55;;;;;;;;;;363103;144;856890;-61
2022/06/24 04:44:55;;;;;;;4.01;1.64;;;;;;;;;;355429;150;856732;-59
2022/06/24 04:45:56;;;;;;;3.16;1.55;;;;;;;;;;360473;146;856280;-64
2022/06/24 04:47:00;;;;;;;2.19;1.62;;;;;;;;;;364171;144;856538;-61
2022/06/24 04:48:01;;;;;;;2.36;1.56;;;;;;;;;;363082;146;863316;-61
2022/06/24 04:49:03;;;;;;;2.42;1.50;;;;;;;;;;362846;146;856225;-60
2022/06/24 04:50:05;;;;;;;4.99;1.59;;;;;;;;;;357438;148;863178;-58
2022/06/24 04:51:10;;;;;;;4.32;1.76;;;;;;;;;;362441;145;863637;-57
2022/06/24 04:52:12;;;;;;;4.04;1.66;;;;;;;;;;358314;147;856263;-57
2022/06/24 04:53:14;;;;;;;4.61;1.83;;;;;;;;;;364765;145;856217;-56
2022/06/24 04:54:15;;;;;;;3.14;1.51;;;;;;;;;;372134;141;863441;-58
2022/06/24 04:55:17;;;;;;;3.45;1.65;;;;;;;;;;374248;141;859086;-56
2022/06/24 04:56:20;;;;;;;6.22;1.57;;;;;;;;;;370387;142;866503;-58
2022/06/24 04:57:22;;;;;;;6.81;1.54;;;;;;;;;;372497;141;857246;-58
2022/06/24 04:58:24;;;;;;;3.47;1.74;;;;;;;;;;370847;142;864765;-56
2022/06/24 04:59:26;;;;;;;5.96;1.47;;;;;;;;;;375402;141;866390;-56
2022/06/24 05:00:29;;;;;;;5.86;1.77;;;;;;;;;;370216;143;860460;-57
2022/06/24 05:01:31;;;;;;;3.08;1.69;;;;;;;;;;370391;144;858605;-57
2022/06/24 05:02:32;;;;;;;7.73;1.87;;;;;;;;;;371063;142;864551;-57
2022/06/24 05:03:34;;;;;;;3.00;1.66;;;;;;;;;;370819;142;865652;-57
2022/06/24 05:04:35;;;;;;;3.02;1.55;;;;;;;;;;369141;142;858557;-55
2022/06/24 05:05:37;;;;;;;2.83;1.58;;;;;;;;;;371433;142;857245;-55
2022/06/24 05:06:40;;;;;;;4.03;1.49;;;;;;;;;;369467;141;865186;-55
2022/06/24 05:07:41;;;;;;;3.59;1.65;;;;;;;;;;373054;141;863403;-58
2022/06/24 05:08:44;;;;;;;7.98;1.85;;;;;;;;;;371624;144;863699;-58
2022/06/24 05:09:46;;;;;;;2.54;1.43;;;;;;;;;;372099;143;857057;-57
2022/06/24 05:10:47;;;;;;;3.35;1.50;;;;;;;;;;370098;141;856639;-57
2022/06/24 05:11:50;;;;;;;3.88;1.70;;;;;;;;;;372038;141;856367;-59
2022/06/24 05:12:52;;;;;;;5.96;1.77;;;;;;;;;;370829;144;856443;-59
2022/06/24 05:13:53;;;;;;;5.25;1.71;;;;;;;;;;371457;144;864310;-59
2022/06/24 05:14:55;;;;;;;2.56;1.54;;;;;;;;;;370202;144;856220;-59
2022/06/24 05:15:58;;;;;;;3.34;1.46;;;;;;;;;;373308;141;856232;-59
2022/06/24 05:16:59;;;;;;;3.83;1.74;;;;;;;;;;366758;144;864067;-58
2022/06/24 05:18:01;;;;;;;2.18;1.61;;;;;;;;;;372436;144;856160;-59
2022/06/24 05:19:03;;;;;;;2.49;1.71;;;;;;;;;;372216;144;856248;-58
2022/06/24 05:21:54;;;;;;;8.53;1.93;;;;;;;20.57;49.39;99637.31;372128;142;881382;-58
2022/06/24 05:22:56;;;;;;;6.15;1.89;;;;;;;20.54;49.17;99638.34;364356;147;857493;-57
2022/06/24 05:23:58;;;;;;;4.98;1.96;;;;;;;20.59;48.89;99632.82;364076;147;857644;-57
2022/06/24 05:25:01;;;;;;;1.87;1.59;;;;;;;;;;361720;147;857239;-57
2022/06/24 05:26:03;;;;;;;3.01;1.63;;;;;;;;;;361544;147;864866;-56
2022/06/24 05:27:05;;;;;;;2.09;1.49;;;;;;;;;;363560;147;857180;-56
2022/06/24 05:28:06;;;;;;;3.79;1.58;;;;;;;;;;364880;147;858548;-57
2022/06/24 05:29:09;;;;;;;5.66;1.75;;;;;;;;;;361456;147;865601;-57
2022/06/24 05:30:13;;;;;;;3.52;1.71;;;;;;;;;;363568;147;857738;-55
2022/06/24 05:31:15;;;;;;;2.76;1.54;;;;;;;;;;364539;147;859463;-57
2022/06/24 05:32:16;;;;;;;4.03;1.57;;;;;;;;;;366677;147;864960;-58
2022/06/24 05:33:18;;;;;;;4.68;1.55;;;;;;;;;;366758;147;858978;-58
2022/06/24 05:34:19;;;;;;;2.79;1.54;;;;;;;;;;364014;147;860205;-58
2022/06/24 05:35:21;;;;;;;2.36;1.89;;;;;;;;;;363738;147;857345;-58
2022/06/24 05:36:24;;;;;;;2.63;1.64;;;;;;;;;;365265;147;857280;-58
2022/06/24 05:37:26;;;;;;;3.24;1.76;;;;;;;;;;366166;147;857935;-58
2022/06/24 05:38:28;;;;;;;4.74;1.66;;;;;;;;;;364599;147;858260;-57
2022/06/24 05:39:30;;;;;;;4.36;1.67;;;;;;;;;;361803;147;864882;-56
2022/06/24 05:40:32;;;;;;;6.38;1.71;;;;;;;;;;362949;147;859224;-57
2022/06/24 05:41:34;;;;;;;2.92;1.54;;;;;;;;;;363646;148;858568;-58
2022/06/24 05:42:36;;;;;;;3.96;1.58;;;;;;;;;;362727;148;864588;-59
2022/06/24 05:43:38;;;;;;;12.16;1.83;;;;;;;;;;363146;147;861911;-56
2022/06/24 05:44:39;;;;;;;2.53;1.59;;;;;;;;;;361189;148;857300;-57
2022/06/24 05:45:41;;;;;;;4.80;2.12;;;;;;;;;;362312;148;866271;-57
2022/06/24 05:46:43;;;;;;;3.85;1.91;;;;;;;;;;360147;148;856442;-58
2022/06/24 05:47:45;;;;;;;5.19;1.54;;;;;;;;;;362988;147;857350;-58
2022/06/24 05:48:46;;;;;;;4.26;2.07;;;;;;;;;;361177;148;858533;-57
2022/06/24 05:49:48;;;;;;;9.51;1.73;;;;;;;;;;358706;148;857881;-58
2022/06/24 05:50:49;;;;;;;8.08;1.84;;;;;;;;;;359703;148;857422;-57
2022/06/24 05:51:51;;;;;;;10.51;2.31;;;;;;;;;;358614;150;866294;-57
2022/06/24 05:55:33;;;;;;;2.62;1.36;;;;;;;;;;360321;148;857637;-59
2022/06/24 05:56:35;;;;;;;3.93;1.54;;;;;;;;;;361208;148;860597;-58
2022/06/24 05:57:36;;;;;;;3.41;1.61;;;;;;;;;;362693;147;866257;-57
2022/06/24 05:58:38;;;;;;;3.16;1.54;;;;;;;;;;360225;147;864670;-57
2022/06/24 05:59:39;;;;;;;5.27;1.45;;;;;;;;;;363056;147;857278;-56
2022/06/24 06:00:41;;;;;;;2.24;1.83;;;;;;;;;;360096;148;858671;-56
2022/06/24 06:01:43;;;;;;;4.87;1.51;;;;;;;;;;359042;147;863776;-56
2022/06/24 06:02:44;;;;;;;5.68;1.77;;;;;;;;;;361783;148;864784;-54
2022/06/24 06:03:49;;;;;;;4.31;1.51;;;;;;;;;;359396;148;865496;-55
2022/06/24 06:04:51;;;;;;;3.95;2.11;;;;;;;;;;361422;147;857461;-56
2022/06/24 06:05:52;;;;;;;3.47;1.81;;;;;;;;;;360664;147;857369;-55
2022/06/24 06:06:54;;;;;;;4.45;1.67;;;;;;;;;;361490;148;857358;-55
2022/06/24 06:07:56;;;;;;;3.16;1.59;;;;;;;;;;360562;147;859097;-54
2022/06/24 06:08:58;;;;;;;4.38;1.91;;;;;;;;;;360303;147;864403;-55
2022/06/24 06:09:59;;;;;;;3.06;1.72;;;;;;;;;;358874;147;864793;-56
2022/06/24 06:11:02;;;;;;;6.04;2.02;;;;;;;;;;362160;147;859053;-54
2022/06/24 06:12:04;;;;;;;2.98;1.58;;;;;;;;;;351630;150;859999;-54
2022/06/24 06:13:06;;;;;;;4.49;1.89;;;;;;;;;;350049;151;857295;-58
2022/06/24 06:14:08;;;;;;;9.45;1.88;;;;;;;;;;353550;148;866520;-54
2022/06/24 06:15:10;;;;;;;4.09;1.89;;;;;;;;;;359825;148;864759;-56
2022/06/24 06:16:14;;;;;;;10.69;1.94;;;;;;;;;;360308;148;865656;-55
2022/06/24 06:17:16;;;;;;;8.93;1.74;;;;;;;;;;361535;147;859149;-56